createdAt,value
2023-04-30T00:02:21.934Z,99387.09
2023-04-30T00:04:48.936Z,99393.06
2023-04-30T00:07:15.908Z,99394.94
2023-04-30T00:09:42.980Z,99395.75
2023-04-30T00:12:10.340Z,99389.31
2023-04-30T00:14:37.399Z,99392.00
2023-04-30T00:17:04.331Z,99389.19
2023-04-30T00:19:31.404Z,99395.88
2023-04-30T00:22:00.286Z,99395.47
2023-04-30T00:24:28.114Z,99394.66
2023-04-30T00:26:55.017Z,99402.75
2023-04-30T00:29:21.962Z,99405.19
2023-04-30T00:31:49.177Z,99412.44
2023-04-30T00:34:16.480Z,99418.06
2023-04-30T00:36:43.497Z,99411.88
2023-04-30T00:39:10.522Z,99407.31
2023-04-30T00:41:37.916Z,99408.72
2023-04-30T00:44:05.102Z,99406.47
2023-04-30T00:46:32.450Z,99413.38
2023-04-30T00:49:02.316Z,99411.34
2023-04-30T00:51:29.562Z,99407.47
2023-04-30T00:53:56.931Z,99411.22
2023-04-30T00:56:24.114Z,99404.66
2023-04-30T00:58:54.545Z,99409.00
2023-04-30T01:01:21.817Z,99407.34
2023-04-30T01:03:49.186Z,99412.75
2023-04-30T01:06:16.364Z,99408.41
2023-04-30T01:08:44.440Z,99410.28
2023-04-30T01:11:37.861Z,99412.28
2023-04-30T01:14:17.770Z,99403.63
2023-04-30T01:17:08.874Z,99416.47
2023-04-30T01:19:42.692Z,99416.13
2023-04-30T01:22:23.261Z,99418.22
2023-04-30T01:25:12.427Z,99419.72
2023-04-30T01:28:07.099Z,99414.22
2023-04-30T01:30:35.750Z,99414.06
2023-04-30T01:33:03.769Z,99422.59
2023-04-30T01:35:43.345Z,99425.50
2023-04-30T01:38:25.356Z,99424.69
2023-04-30T01:40:58.181Z,99420.38
2023-04-30T01:43:46.263Z,99419.31
2023-04-30T01:46:29.797Z,99422.81
2023-04-30T01:49:15.976Z,99422.00
2023-04-30T01:51:47.246Z,99419.53
2023-04-30T01:54:19.793Z,99421.63
2023-04-30T01:56:57.923Z,99417.75
2023-04-30T01:59:25.848Z,99419.88
2023-04-30T02:01:56.449Z,99423.97
2023-04-30T02:04:23.535Z,99415.31
2023-04-30T02:06:50.550Z,99413.56
2023-04-30T02:09:17.649Z,99405.28
2023-04-30T02:11:44.615Z,99401.53
2023-04-30T02:14:11.738Z,99407.50
2023-04-30T02:16:58.792Z,99396.53
2023-04-30T02:19:25.755Z,99397.09
2023-04-30T02:21:53.974Z,99396.22
2023-04-30T02:24:21.150Z,99395.06
2023-04-30T02:26:48.412Z,99396.59
2023-04-30T02:29:16.359Z,99390.28
2023-04-30T02:31:43.509Z,99377.81
2023-04-30T02:34:11.424Z,99385.53
2023-04-30T02:36:38.761Z,99385.94
2023-04-30T02:39:06.388Z,99382.53
2023-04-30T02:41:33.314Z,99380.44
2023-04-30T02:44:00.794Z,99376.81
2023-04-30T02:46:27.905Z,99370.13
2023-04-30T02:48:54.899Z,99365.94
2023-04-30T02:51:21.922Z,99369.81
2023-04-30T02:53:49.747Z,99356.69
2023-04-30T02:56:16.751Z,99365.59
2023-04-30T02:58:43.745Z,99368.38
2023-04-30T03:01:10.854Z,99370.38
2023-04-30T03:03:37.973Z,99375.06
2023-04-30T03:06:05.380Z,99366.28
2023-04-30T03:08:32.376Z,99366.16
2023-04-30T03:10:59.485Z,99362.75
2023-04-30T03:13:26.487Z,99364.16
2023-04-30T03:16:01.223Z,99363.78
2023-04-30T03:18:29.235Z,99358.97
2023-04-30T03:20:56.963Z,99362.38
2023-04-30T03:23:24.439Z,99364.03
2023-04-30T03:25:51.941Z,99353.59
2023-04-30T03:28:18.864Z,99363.88
2023-04-30T03:30:45.905Z,99352.63
2023-04-30T03:33:13.405Z,99347.56
2023-04-30T03:35:40.547Z,99339.84
2023-04-30T03:38:07.504Z,99345.31
2023-04-30T03:40:34.509Z,99343.00
2023-04-30T03:43:01.566Z,99339.56
2023-04-30T03:45:28.742Z,99335.09
2023-04-30T03:47:56.026Z,99336.81
2023-04-30T03:50:23.424Z,99331.53
2023-04-30T03:52:50.531Z,99336.75
2023-04-30T03:55:17.672Z,99342.03
2023-04-30T03:57:44.893Z,99330.03
2023-04-30T04:00:13.787Z,99328.31
2023-04-30T04:02:43.574Z,99335.53
2023-04-30T04:05:11.704Z,99335.94
2023-04-30T04:07:38.696Z,99331.53
2023-04-30T04:10:06.347Z,99318.72
2023-04-30T04:12:33.328Z,99333.75
2023-04-30T04:15:00.492Z,99324.97
2023-04-30T04:17:27.624Z,99324.00
2023-04-30T04:19:55.027Z,99322.19
2023-04-30T04:22:22.498Z,99325.28
2023-04-30T04:24:49.736Z,99321.34
2023-04-30T04:27:20.596Z,99323.06
2023-04-30T04:29:48.142Z,99319.38
2023-04-30T04:32:15.271Z,99316.66
2023-04-30T04:34:43.810Z,99317.59
2023-04-30T04:37:12.441Z,99311.75
2023-04-30T04:39:39.599Z,99315.94
2023-04-30T04:42:07.258Z,99314.09
2023-04-30T04:44:36.484Z,99307.38
2023-04-30T04:47:04.462Z,99303.66
2023-04-30T04:49:31.488Z,99315.06
2023-04-30T04:51:58.518Z,99306.28
2023-04-30T04:54:26.108Z,99310.16
2023-04-30T04:56:53.030Z,99308.63
2023-04-30T04:59:20.048Z,99310.38
2023-04-30T05:01:48.841Z,99307.50
2023-04-30T05:04:16.074Z,99315.47
2023-04-30T05:06:45.686Z,99316.09
2023-04-30T05:09:13.037Z,99307.78
2023-04-30T05:11:41.768Z,99307.09
2023-04-30T05:14:08.862Z,99310.13
2023-04-30T05:16:35.981Z,99308.59
2023-04-30T05:19:02.902Z,99304.03
2023-04-30T05:21:29.935Z,99298.09
2023-04-30T05:23:56.856Z,99300.59
2023-04-30T05:26:24.583Z,99304.41
2023-04-30T05:28:52.508Z,99301.44
2023-04-30T05:31:21.050Z,99300.38
2023-04-30T05:33:48.512Z,99303.09
2023-04-30T05:36:15.586Z,99312.34
2023-04-30T05:38:42.751Z,99298.50
2023-04-30T05:41:12.715Z,99305.84
2023-04-30T05:43:39.677Z,99299.91
2023-04-30T05:46:07.209Z,99298.56
2023-04-30T05:48:34.441Z,99299.63
2023-04-30T05:51:01.474Z,99297.22
2023-04-30T05:53:28.452Z,99302.38
2023-04-30T05:55:55.596Z,99295.13
2023-04-30T05:58:22.675Z,99301.66
2023-04-30T06:00:52.142Z,99304.13
2023-04-30T06:03:19.788Z,99307.97
2023-04-30T06:05:47.771Z,99312.31
2023-04-30T06:08:15.031Z,99317.22
2023-04-30T06:10:42.591Z,99324.56
2023-04-30T06:13:09.755Z,99321.06
2023-04-30T06:15:36.801Z,99312.91
2023-04-30T06:18:04.034Z,99317.28
2023-04-30T06:20:31.069Z,99325.97
2023-04-30T06:22:58.092Z,99324.34
2023-04-30T06:25:25.013Z,99321.09
2023-04-30T06:27:54.257Z,99322.50
2023-04-30T06:30:21.329Z,99318.97
2023-04-30T06:32:48.599Z,99316.53
2023-04-30T06:35:15.747Z,99319.22
2023-04-30T06:37:42.949Z,99316.78
2023-04-30T06:40:10.154Z,99306.97
2023-04-30T06:42:37.076Z,99317.56
2023-04-30T06:45:06.734Z,99310.72
2023-04-30T06:47:38.419Z,99306.38
2023-04-30T06:50:05.946Z,99308.25
2023-04-30T06:52:32.895Z,99313.69
2023-04-30T06:54:59.965Z,99301.16
2023-04-30T06:57:27.827Z,99295.13
2023-04-30T06:59:55.472Z,99277.97
2023-04-30T07:02:22.698Z,99285.56
2023-04-30T07:04:49.691Z,99276.84
2023-04-30T07:07:16.786Z,99275.44
2023-04-30T07:09:43.653Z,99284.38
2023-04-30T07:12:13.744Z,99278.13
2023-04-30T07:14:40.919Z,99257.69
2023-04-30T07:17:07.950Z,99262.00
2023-04-30T07:19:34.905Z,99256.03
2023-04-30T07:22:02.022Z,99257.66
2023-04-30T07:24:29.574Z,99260.63
2023-04-30T07:26:56.569Z,99252.69
2023-04-30T07:29:23.547Z,99235.78
2023-04-30T07:31:51.800Z,99245.28
2023-04-30T07:34:18.826Z,99248.84
2023-04-30T07:36:45.705Z,99242.56
2023-04-30T07:39:12.864Z,99233.00
2023-04-30T07:41:39.860Z,99228.63
2023-04-30T07:44:06.809Z,99220.91
2023-04-30T07:46:33.865Z,99216.75
2023-04-30T07:49:01.048Z,99207.13
2023-04-30T07:51:28.213Z,99204.41
2023-04-30T07:53:55.735Z,99192.94
2023-04-30T07:56:22.725Z,99181.38
2023-04-30T07:58:49.798Z,99175.56
2023-04-30T08:01:17.240Z,99175.50
2023-04-30T08:03:44.398Z,99168.72
2023-04-30T08:06:11.355Z,99166.28
2023-04-30T08:08:39.696Z,99161.69
2023-04-30T08:11:06.694Z,99153.78
2023-04-30T08:13:33.889Z,99152.97
2023-04-30T08:16:01.050Z,99136.88
2023-04-30T08:18:27.973Z,99129.22
2023-04-30T08:20:55.016Z,99128.63
2023-04-30T08:23:22.041Z,99120.25
2023-04-30T08:25:49.422Z,99128.97
2023-04-30T08:28:16.408Z,99118.41
2023-04-30T08:30:43.796Z,99123.34
2023-04-30T08:33:11.524Z,99110.38
2023-04-30T08:35:38.478Z,99105.25
2023-04-30T08:38:05.502Z,99093.03
2023-04-30T08:40:50.102Z,99106.16
2023-04-30T08:43:20.365Z,99104.03
2023-04-30T08:45:48.400Z,99086.06
2023-04-30T08:48:17.037Z,99090.50
2023-04-30T08:50:44.000Z,99102.41
2023-04-30T08:53:13.371Z,99094.31
2023-04-30T08:55:40.956Z,99093.25
2023-04-30T08:58:10.492Z,99078.88
2023-04-30T09:00:39.232Z,99082.16
2023-04-30T09:03:08.615Z,99074.09
2023-04-30T09:05:38.503Z,99073.31
2023-04-30T09:08:07.915Z,99056.19
2023-04-30T09:10:35.782Z,99050.72
2023-04-30T09:13:03.863Z,99057.56
2023-04-30T09:15:32.387Z,99050.72
2023-04-30T09:18:18.868Z,99053.34
2023-04-30T09:21:03.095Z,99041.59
2023-04-30T09:23:30.908Z,99042.41
2023-04-30T09:25:58.094Z,99033.66
2023-04-30T09:28:26.737Z,99035.03
2023-04-30T09:30:54.518Z,99029.06
2023-04-30T09:33:21.629Z,99013.06
2023-04-30T09:35:49.352Z,99006.22
2023-04-30T09:38:46.185Z,99004.53
2023-04-30T09:41:23.732Z,99000.06
2023-04-30T09:43:51.377Z,99002.25
2023-04-30T09:46:20.587Z,99005.50
2023-04-30T09:48:55.879Z,98996.81
2023-04-30T09:51:23.134Z,98988.44
2023-04-30T09:53:51.754Z,98995.56
2023-04-30T09:56:24.676Z,98976.28
2023-04-30T09:58:56.346Z,98975.25
2023-04-30T10:01:29.846Z,98976.28
2023-04-30T10:03:58.451Z,98979.53
2023-04-30T10:06:27.324Z,98989.94
2023-04-30T10:08:57.841Z,99006.91
2023-04-30T10:11:29.075Z,98990.88
2023-04-30T10:14:04.128Z,98990.59
2023-04-30T10:17:04.173Z,98983.75
2023-04-30T10:19:34.092Z,98994.13
2023-04-30T10:22:02.497Z,98986.47
2023-04-30T10:24:30.622Z,98995.16
2023-04-30T10:26:58.731Z,98991.88
2023-04-30T10:29:25.978Z,98993.72
2023-04-30T10:31:54.862Z,98980.91
2023-04-30T10:35:08.128Z,98991.16
2023-04-30T10:37:44.012Z,98982.47
2023-04-30T10:40:11.761Z,98977.25
2023-04-30T10:42:46.449Z,98979.66
2023-04-30T10:45:13.447Z,98976.66
2023-04-30T10:47:45.820Z,98985.34
2023-04-30T10:50:13.818Z,98982.63
2023-04-30T10:52:41.138Z,98977.75
2023-04-30T10:55:10.092Z,98971.50
2023-04-30T10:57:48.542Z,98981.50
2023-04-30T11:00:19.665Z,98983.03
2023-04-30T11:02:48.950Z,98989.75
2023-04-30T11:05:18.666Z,98994.53
2023-04-30T11:07:56.688Z,98988.09
2023-04-30T11:10:26.468Z,98981.03
2023-04-30T11:12:56.083Z,98986.28
2023-04-30T11:15:28.255Z,98982.31
2023-04-30T11:18:02.222Z,98958.50
2023-04-30T11:20:29.397Z,98953.28
2023-04-30T11:23:10.083Z,98955.94
2023-04-30T11:25:42.535Z,98955.84
2023-04-30T11:28:17.960Z,98940.94
2023-04-30T11:30:56.422Z,98949.94
2023-04-30T11:33:26.022Z,98944.47
2023-04-30T11:35:54.165Z,98923.00
2023-04-30T11:38:26.420Z,98923.81
2023-04-30T11:40:55.120Z,98927.94
2023-04-30T11:43:32.050Z,98907.41
2023-04-30T11:46:11.662Z,98910.25
2023-04-30T11:48:41.126Z,98905.50
2023-04-30T11:51:22.214Z,98905.91
2023-04-30T11:53:51.830Z,98906.06
2023-04-30T11:56:24.410Z,98906.25
2023-04-30T11:58:57.767Z,98913.75
2023-04-30T12:01:28.845Z,98902.22
2023-04-30T12:03:57.543Z,98901.63
2023-04-30T12:06:29.342Z,98897.06
2023-04-30T12:08:58.380Z,98897.97
2023-04-30T12:11:28.072Z,98878.47
2023-04-30T12:13:57.045Z,98884.03
2023-04-30T12:16:26.038Z,98889.03
2023-04-30T12:18:53.268Z,98888.38
2023-04-30T12:21:23.313Z,98889.97
2023-04-30T12:23:50.883Z,98881.81
2023-04-30T12:26:17.990Z,98881.47
2023-04-30T12:28:47.813Z,98879.03
2023-04-30T12:31:14.923Z,98889.91
2023-04-30T12:33:42.213Z,98892.06
2023-04-30T12:36:13.442Z,98897.31
2023-04-30T12:38:44.170Z,98887.94
2023-04-30T12:41:15.565Z,98890.72
2023-04-30T12:43:42.620Z,98889.97
2023-04-30T12:46:09.642Z,98896.25
2023-04-30T12:48:45.942Z,98896.03
2023-04-30T12:51:13.174Z,98888.97
2023-04-30T12:53:47.085Z,98885.50
2023-04-30T12:56:17.921Z,98884.75
2023-04-30T12:58:47.691Z,98877.69
2023-04-30T13:01:19.596Z,98876.31
2023-04-30T13:03:47.075Z,98876.31
2023-04-30T13:06:14.548Z,98867.56
2023-04-30T13:08:56.185Z,98871.59
2023-04-30T13:11:26.443Z,98867.25
2023-04-30T13:13:57.260Z,98858.50
2023-04-30T13:16:27.512Z,98857.47
2023-04-30T13:18:55.171Z,98855.63
2023-04-30T13:21:22.725Z,98859.44
2023-04-30T13:23:53.717Z,98854.59
2023-04-30T13:26:23.613Z,98845.13
2023-04-30T13:28:51.359Z,98839.69
2023-04-30T13:31:18.788Z,98839.53
2023-04-30T13:33:45.836Z,98844.78
2023-04-30T13:36:12.977Z,98841.84
2023-04-30T13:38:40.169Z,98825.59
2023-04-30T13:41:07.267Z,98825.63
2023-04-30T13:43:34.488Z,98822.09
2023-04-30T13:46:02.077Z,98825.09
2023-04-30T13:48:29.429Z,98825.38
2023-04-30T13:50:56.667Z,98822.44
2023-04-30T13:53:23.702Z,98804.78
2023-04-30T13:55:50.842Z,98798.03
2023-04-30T13:58:18.204Z,98786.91
2023-04-30T14:00:45.312Z,98790.22
2023-04-30T14:03:12.812Z,98791.88
2023-04-30T14:05:40.010Z,98794.63
2023-04-30T14:08:07.001Z,98787.09
2023-04-30T14:10:34.088Z,98781.19
2023-04-30T14:13:01.065Z,98772.06
2023-04-30T14:15:30.702Z,98763.13
2023-04-30T14:17:58.153Z,98767.84
2023-04-30T14:20:25.721Z,98761.97
2023-04-30T14:22:53.133Z,98754.72
2023-04-30T14:25:20.458Z,98750.19
2023-04-30T14:27:47.729Z,98748.31
2023-04-30T14:30:14.929Z,98738.00
2023-04-30T14:32:41.943Z,98728.28
2023-04-30T14:35:09.978Z,98735.31
2023-04-30T14:37:37.155Z,98731.81
2023-04-30T14:40:06.925Z,98722.03
2023-04-30T14:42:34.067Z,98700.09
2023-04-30T14:45:01.226Z,98706.91
2023-04-30T14:47:28.686Z,98711.28
2023-04-30T14:49:56.052Z,98707.50
2023-04-30T14:52:23.312Z,98691.50
2023-04-30T14:54:50.352Z,98704.84
2023-04-30T14:57:18.745Z,98709.72
2023-04-30T14:59:45.807Z,98694.63
2023-04-30T15:02:12.843Z,98687.91
2023-04-30T15:04:40.138Z,98692.53
2023-04-30T15:07:07.523Z,98676.03
2023-04-30T15:09:34.665Z,98679.03
2023-04-30T15:12:01.947Z,98675.25
2023-04-30T15:14:28.906Z,98667.16
2023-04-30T15:16:56.647Z,98669.06
2023-04-30T15:19:24.482Z,98663.91
2023-04-30T15:21:52.479Z,98660.16
2023-04-30T15:24:19.450Z,98663.94
2023-04-30T15:26:46.492Z,98660.16
2023-04-30T15:29:13.520Z,98656.63
2023-04-30T15:31:40.581Z,98651.50
2023-04-30T15:34:07.726Z,98633.34
2023-04-30T15:36:35.135Z,98634.72
2023-04-30T15:39:02.143Z,98636.63
2023-04-30T15:41:29.347Z,98620.13
2023-04-30T15:43:56.669Z,98622.31
2023-04-30T15:46:23.853Z,98613.91
2023-04-30T15:48:51.230Z,98615.00
2023-04-30T15:51:18.330Z,98619.91
2023-04-30T15:53:45.462Z,98607.44
2023-04-30T15:56:12.562Z,98587.72
2023-04-30T15:58:40.545Z,98598.28
2023-04-30T16:01:07.472Z,98593.16
2023-04-30T16:03:34.692Z,98594.81
2023-04-30T16:06:02.943Z,98574.50
2023-04-30T16:08:30.795Z,98575.03
2023-04-30T16:10:57.966Z,98568.84
2023-04-30T16:13:24.986Z,98561.03
2023-04-30T16:15:52.134Z,98564.00
2023-04-30T16:18:19.156Z,98564.28
2023-04-30T16:20:48.800Z,98557.28
2023-04-30T16:23:16.774Z,98540.78
2023-04-30T16:25:43.811Z,98526.72
2023-04-30T16:28:11.082Z,98529.72
2023-04-30T16:30:38.399Z,98528.91
2023-04-30T16:33:07.162Z,98524.31
2023-04-30T16:35:34.210Z,98513.81
2023-04-30T16:38:02.671Z,98516.53
2023-04-30T16:40:29.802Z,98520.03
2023-04-30T16:42:56.823Z,98496.78
2023-04-30T16:45:24.302Z,98498.44
2023-04-30T16:47:51.385Z,98483.28
2023-04-30T16:50:18.530Z,98481.13
2023-04-30T16:52:45.981Z,98486.81
2023-04-30T16:55:13.382Z,98480.06
2023-04-30T16:57:40.403Z,98482.25
2023-04-30T17:00:08.728Z,98481.16
2023-04-30T17:02:35.887Z,98495.47
2023-04-30T17:05:03.111Z,98499.00
2023-04-30T17:07:30.453Z,98509.00
2023-04-30T17:09:57.788Z,98502.28
2023-04-30T17:12:25.019Z,98516.06
2023-04-30T17:14:52.353Z,98522.00
2023-04-30T17:17:19.628Z,98520.94
2023-04-30T17:19:46.720Z,98517.41
2023-04-30T17:22:14.331Z,98512.53
2023-04-30T17:24:41.624Z,98517.69
2023-04-30T17:27:08.623Z,98509.03
2023-04-30T17:29:35.910Z,98511.47
2023-04-30T17:32:03.179Z,98510.63
2023-04-30T17:34:31.644Z,98510.59
2023-04-30T17:36:58.893Z,98509.25
2023-04-30T17:39:25.876Z,98509.00
2023-04-30T17:41:52.831Z,98507.38
2023-04-30T17:44:19.897Z,98509.53
2023-04-30T17:46:47.604Z,98505.75
2023-04-30T17:49:14.703Z,98504.66
2023-04-30T17:51:41.802Z,98501.97
2023-04-30T17:54:08.886Z,98504.09
2023-04-30T17:56:36.397Z,98507.06
2023-04-30T17:59:03.684Z,98497.88
2023-04-30T18:01:31.585Z,98500.56
2023-04-30T18:04:00.108Z,98488.16
2023-04-30T18:06:28.168Z,98497.59
2023-04-30T18:08:55.691Z,98484.91
2023-04-30T18:11:23.371Z,98483.81
2023-04-30T18:13:50.347Z,98481.41
2023-04-30T18:16:17.355Z,98471.94
2023-04-30T18:18:44.513Z,98470.06
2023-04-30T18:21:11.478Z,98474.06
2023-04-30T18:23:38.478Z,98470.00
2023-04-30T18:26:06.206Z,98462.19
2023-04-30T18:28:34.036Z,98456.78
2023-04-30T18:31:01.131Z,98453.81
2023-04-30T18:33:28.208Z,98453.53
2023-04-30T18:35:57.206Z,98451.94
2023-04-30T18:38:24.673Z,98457.59
2023-04-30T18:40:55.938Z,98455.16
2023-04-30T18:43:23.652Z,98460.03
2023-04-30T18:45:51.441Z,98454.63
2023-04-30T18:48:19.512Z,98457.31
2023-04-30T18:50:46.950Z,98454.34
2023-04-30T18:53:14.153Z,98451.94
2023-04-30T18:55:41.910Z,98435.75
2023-04-30T18:58:09.237Z,98440.59
2023-04-30T19:00:36.572Z,98433.28
2023-04-30T19:03:04.035Z,98428.16
2023-04-30T19:05:32.443Z,98420.06
2023-04-30T19:07:59.487Z,98416.56
2023-04-30T19:10:26.527Z,98402.75
2023-04-30T19:12:53.561Z,98404.66
2023-04-30T19:15:20.624Z,98393.31
2023-04-30T19:17:47.750Z,98400.31
2023-04-30T19:20:14.717Z,98394.66
2023-04-30T19:22:42.133Z,98387.38
2023-04-30T19:25:10.089Z,98402.22
2023-04-30T19:27:37.595Z,98389.81
2023-04-30T19:30:05.319Z,98391.69
2023-04-30T19:32:32.526Z,98387.38
2023-04-30T19:34:59.515Z,98388.44
2023-04-30T19:37:26.908Z,98381.16
2023-04-30T19:39:54.129Z,98376.56
2023-04-30T19:42:21.300Z,98381.16
2023-04-30T19:44:52.298Z,98374.94
2023-04-30T19:47:19.557Z,98374.41
2023-04-30T19:49:47.486Z,98362.00
2023-04-30T19:52:14.965Z,98358.22
2023-04-30T19:54:48.562Z,98360.38
2023-04-30T19:57:17.126Z,98352.81
2023-04-30T19:59:44.589Z,98355.22
2023-04-30T20:02:12.240Z,98351.72
2023-04-30T20:04:39.505Z,98344.72
2023-04-30T20:07:06.716Z,98339.03
2023-04-30T20:09:33.955Z,98329.59
2023-04-30T20:12:03.744Z,98328.00
2023-04-30T20:14:31.062Z,98322.06
2023-04-30T20:16:58.545Z,98305.06
2023-04-30T20:19:26.168Z,98299.94
2023-04-30T20:21:54.255Z,98302.09
2023-04-30T20:24:22.130Z,98297.25
2023-04-30T20:26:49.267Z,98288.88
2023-04-30T20:29:17.361Z,98286.19
2023-04-30T20:31:44.339Z,98274.31
2023-04-30T20:34:11.315Z,98287.25
2023-04-30T20:36:38.858Z,98282.09
2023-04-30T20:39:05.869Z,98284.25
2023-04-30T20:41:32.841Z,98276.72
2023-04-30T20:44:00.793Z,98289.69
2023-04-30T20:46:28.609Z,98287.81
2023-04-30T20:49:01.415Z,98291.31
2023-04-30T20:51:28.742Z,98262.47
2023-04-30T20:53:55.805Z,98256.00
2023-04-30T20:56:23.156Z,98249.25
2023-04-30T20:58:50.068Z,98243.06
2023-04-30T21:01:17.273Z,98228.22
2023-04-30T21:03:44.283Z,98226.06
2023-04-30T21:06:11.623Z,98223.91
2023-04-30T21:08:38.693Z,98228.22
2023-04-30T21:11:05.622Z,98225.28
2023-04-30T21:13:32.917Z,98225.81
2023-04-30T21:15:59.998Z,98227.69
2023-04-30T21:18:27.734Z,98236.06
2023-04-30T21:21:01.619Z,98231.22
2023-04-30T21:23:30.053Z,98213.69
2023-04-30T21:25:57.176Z,98206.69
2023-04-30T21:28:24.521Z,98218.53
2023-04-30T21:30:52.058Z,98218.53
2023-04-30T21:33:19.342Z,98234.19
2023-04-30T21:35:46.459Z,98228.25
2023-04-30T21:38:13.856Z,98213.97
2023-04-30T21:40:43.279Z,98201.81
2023-04-30T21:43:10.516Z,98206.13
2023-04-30T21:45:37.495Z,98205.31
2023-04-30T21:48:05.688Z,98199.94
2023-04-30T21:50:33.756Z,98205.59
2023-04-30T21:53:03.191Z,98214.22
2023-04-30T21:55:30.225Z,98222.03
2023-04-30T21:57:57.664Z,98234.19
2023-04-30T22:00:24.912Z,98239.56
2023-04-30T22:02:51.932Z,98238.75
2023-04-30T22:05:19.888Z,98238.75
2023-04-30T22:07:47.536Z,98230.41
2023-04-30T22:10:17.711Z,98234.19
2023-04-30T22:12:47.330Z,98214.50
2023-04-30T22:15:15.496Z,98223.94
2023-04-30T22:17:42.651Z,98218.28
2023-04-30T22:20:10.215Z,98234.97
2023-04-30T22:22:37.259Z,98236.06
2023-04-30T22:25:04.766Z,98237.69
2023-04-30T22:27:32.223Z,98233.91
2023-04-30T22:29:59.377Z,98223.66
2023-04-30T22:32:26.628Z,98225.28
2023-04-30T22:34:53.767Z,98230.66
2023-04-30T22:37:20.947Z,98224.16
2023-04-30T22:39:48.558Z,98215.25
2023-04-30T22:42:17.019Z,98219.31
2023-04-30T22:44:45.509Z,98223.06
2023-04-30T22:47:12.720Z,98209.34
2023-04-30T22:49:40.128Z,98203.66
2023-04-30T22:52:07.386Z,98194.25
2023-04-30T22:54:35.430Z,98194.25
2023-04-30T22:57:03.138Z,98188.56
2023-04-30T22:59:30.241Z,98192.63
2023-04-30T23:01:57.441Z,98196.38
2023-04-30T23:04:24.675Z,98200.94
2023-04-30T23:06:51.614Z,98193.94
2023-04-30T23:09:19.355Z,98195.53
2023-04-30T23:11:46.332Z,98185.31
2023-04-30T23:14:13.237Z,98178.28
2023-04-30T23:16:42.745Z,98178.56
2023-04-30T23:19:10.510Z,98168.06
2023-04-30T23:21:37.599Z,98157.03
2023-04-30T23:24:04.544Z,98158.38
2023-04-30T23:26:31.637Z,98163.22
2023-04-30T23:28:58.773Z,98165.09
2023-04-30T23:31:25.886Z,98150.28
2023-04-30T23:33:52.987Z,98147.06
2023-04-30T23:36:20.072Z,98149.22
2023-04-30T23:38:47.007Z,98143.28
2023-04-30T23:41:14.579Z,98154.31
2023-04-30T23:43:41.591Z,98143.53
2023-04-30T23:46:08.850Z,98128.72
2023-04-30T23:48:36.160Z,98120.94
2023-04-30T23:51:08.434Z,98110.44
2023-04-30T23:53:35.759Z,98106.91
2023-04-30T23:56:03.066Z,98103.16
2023-04-30T23:58:32.802Z,98104.22
